sensor_id;sensor_type;location;lat;lon;timestamp;P1;durP1;ratioP1;P2;durP2;ratioP2
11837;SDS011;5978;51.020;6.764;2023-02-26T00:02:15;13.23;;;2.93;;
11837;SDS011;5978;51.020;6.764;2023-02-26T00:04:41;1.87;;;1.40;;
11837;SDS011;5978;51.020;6.764;2023-02-26T00:07:06;2.63;;;2.20;;
11837;SDS011;5978;51.020;6.764;2023-02-26T00:09:32;4.27;;;2.80;;
11837;SDS011;5978;51.020;6.764;2023-02-26T00:11:58;12.23;;;2.47;;
11837;SDS011;5978;51.020;6.764;2023-02-26T00:14:24;8.75;;;2.15;;
11837;SDS011;5978;51.020;6.764;2023-02-26T00:17:36;7.68;;;2.60;;
11837;SDS011;5978;51.020;6.764;2023-02-26T00:19:52;3.25;;;2.70;;
11837;SDS011;5978;51.020;6.764;2023-02-26T00:22:18;6.60;;;2.80;;
11837;SDS011;5978;51.020;6.764;2023-02-26T00:24:44;7.63;;;2.50;;
11837;SDS011;5978;51.020;6.764;2023-02-26T00:27:10;3.83;;;2.37;;
11837;SDS011;5978;51.020;6.764;2023-02-26T00:29:36;6.25;;;2.95;;
11837;SDS011;5978;51.020;6.764;2023-02-26T00:32:03;4.35;;;2.17;;
11837;SDS011;5978;51.020;6.764;2023-02-26T00:34:29;3.25;;;2.15;;
11837;SDS011;5978;51.020;6.764;2023-02-26T00:42:45;3.80;;;1.55;;
11837;SDS011;5978;51.020;6.764;2023-02-26T00:45:12;3.95;;;2.30;;
11837;SDS011;5978;51.020;6.764;2023-02-26T00:50:17;4.15;;;1.95;;
11837;SDS011;5978;51.020;6.764;2023-02-26T00:52:58;9.15;;;1.73;;
11837;SDS011;5978;51.020;6.764;2023-02-26T00:55:35;1.83;;;1.63;;
11837;SDS011;5978;51.020;6.764;2023-02-26T00:58:01;3.97;;;2.00;;
11837;SDS011;5978;51.020;6.764;2023-02-26T01:00:26;2.93;;;1.40;;
11837;SDS011;5978;51.020;6.764;2023-02-26T01:02:52;2.50;;;1.37;;
11837;SDS011;5978;51.020;6.764;2023-02-26T01:05:18;6.90;;;1.90;;
11837;SDS011;5978;51.020;6.764;2023-02-26T01:07:53;2.80;;;1.70;;
11837;SDS011;5978;51.020;6.764;2023-02-26T01:10:28;2.40;;;1.70;;
11837;SDS011;5978;51.020;6.764;2023-02-26T01:12:54;6.00;;;2.20;;
11837;SDS011;5978;51.020;6.764;2023-02-26T01:15:21;2.67;;;1.85;;
11837;SDS011;5978;51.020;6.764;2023-02-26T01:20:17;1.35;;;1.25;;
11837;SDS011;5978;51.020;6.764;2023-02-26T01:22:54;3.42;;;1.83;;
11837;SDS011;5978;51.020;6.764;2023-02-26T01:25:26;5.72;;;1.55;;
11837;SDS011;5978;51.020;6.764;2023-02-26T01:27:59;3.72;;;1.38;;
11837;SDS011;5978;51.020;6.764;2023-02-26T01:30:24;5.73;;;1.97;;
11837;SDS011;5978;51.020;6.764;2023-02-26T01:35:39;2.80;;;2.00;;
11837;SDS011;5978;51.020;6.764;2023-02-26T01:38:28;6.00;;;2.40;;
11837;SDS011;5978;51.020;6.764;2023-02-26T01:41:02;4.63;;;2.67;;
11837;SDS011;5978;51.020;6.764;2023-02-26T01:43:53;3.63;;;2.03;;
11837;SDS011;5978;51.020;6.764;2023-02-26T01:46:25;3.13;;;2.20;;
11837;SDS011;5978;51.020;6.764;2023-02-26T01:48:53;2.92;;;2.55;;
11837;SDS011;5978;51.020;6.764;2023-02-26T01:54:05;1.30;;;1.20;;
11837;SDS011;5978;51.020;6.764;2023-02-26T01:56:30;9.50;;;2.20;;
11837;SDS011;5978;51.020;6.764;2023-02-26T01:58:56;2.17;;;1.98;;
11837;SDS011;5978;51.020;6.764;2023-02-26T02:01:23;8.90;;;1.40;;
11837;SDS011;5978;51.020;6.764;2023-02-26T02:03:48;3.83;;;1.80;;
11837;SDS011;5978;51.020;6.764;2023-02-26T02:06:21;1.33;;;1.23;;
11837;SDS011;5978;51.020;6.764;2023-02-26T02:08:50;3.70;;;1.80;;
11837;SDS011;5978;51.020;6.764;2023-02-26T02:11:15;2.93;;;1.47;;
11837;SDS011;5978;51.020;6.764;2023-02-26T02:33:27;4.00;;;2.28;;
11837;SDS011;5978;51.020;6.764;2023-02-26T02:36:00;5.30;;;1.92;;
11837;SDS011;5978;51.020;6.764;2023-02-26T02:41:14;6.10;;;1.95;;
11837;SDS011;5978;51.020;6.764;2023-02-26T02:43:44;2.00;;;1.45;;
11837;SDS011;5978;51.020;6.764;2023-02-26T02:46:14;3.83;;;1.70;;
11837;SDS011;5978;51.020;6.764;2023-02-26T02:51:30;4.18;;;1.88;;
11837;SDS011;5978;51.020;6.764;2023-02-26T02:59:10;4.25;;;1.63;;
11837;SDS011;5978;51.020;6.764;2023-02-26T03:04:51;5.45;;;1.73;;
11837;SDS011;5978;51.020;6.764;2023-02-26T03:07:17;3.67;;;1.77;;
11837;SDS011;5978;51.020;6.764;2023-02-26T03:09:43;6.47;;;1.60;;
11837;SDS011;5978;51.020;6.764;2023-02-26T03:12:08;6.50;;;2.87;;
11837;SDS011;5978;51.020;6.764;2023-02-26T03:14:34;2.13;;;1.80;;
11837;SDS011;5978;51.020;6.764;2023-02-26T03:24:57;4.47;;;1.90;;
11837;SDS011;5978;51.020;6.764;2023-02-26T03:27:32;4.18;;;1.80;;
11837;SDS011;5978;51.020;6.764;2023-02-26T03:30:18;8.60;;;2.78;;
11837;SDS011;5978;51.020;6.764;2023-02-26T03:35:44;5.45;;;1.92;;
11837;SDS011;5978;51.020;6.764;2023-02-26T03:38:27;4.97;;;2.30;;
11837;SDS011;5978;51.020;6.764;2023-02-26T03:41:05;3.80;;;1.90;;
11837;SDS011;5978;51.020;6.764;2023-02-26T03:46:09;2.00;;;1.65;;
11837;SDS011;5978;51.020;6.764;2023-02-26T03:48:42;2.88;;;1.67;;
11837;SDS011;5978;51.020;6.764;2023-02-26T03:51:11;2.88;;;1.30;;
11837;SDS011;5978;51.020;6.764;2023-02-26T03:53:41;1.88;;;1.48;;
11837;SDS011;5978;51.020;6.764;2023-02-26T03:58:47;3.75;;;1.50;;
11837;SDS011;5978;51.020;6.764;2023-02-26T04:01:18;3.90;;;1.20;;
11837;SDS011;5978;51.020;6.764;2023-02-26T04:04:10;2.17;;;1.67;;
11837;SDS011;5978;51.020;6.764;2023-02-26T04:06:40;3.67;;;1.40;;
11837;SDS011;5978;51.020;6.764;2023-02-26T04:09:07;4.25;;;1.20;;
11837;SDS011;5978;51.020;6.764;2023-02-26T04:11:32;1.80;;;1.20;;
11837;SDS011;5978;51.020;6.764;2023-02-26T04:14:01;3.17;;;1.42;;
11837;SDS011;5978;51.020;6.764;2023-02-26T04:16:27;3.13;;;1.50;;
11837;SDS011;5978;51.020;6.764;2023-02-26T04:18:53;1.50;;;1.25;;
11837;SDS011;5978;51.020;6.764;2023-02-26T04:21:19;6.10;;;1.70;;
11837;SDS011;5978;51.020;6.764;2023-02-26T04:23:46;4.13;;;1.30;;
11837;SDS011;5978;51.020;6.764;2023-02-26T04:26:11;3.50;;;1.80;;
11837;SDS011;5978;51.020;6.764;2023-02-26T04:28:37;6.30;;;1.60;;
11837;SDS011;5978;51.020;6.764;2023-02-26T04:31:04;10.40;;;1.70;;
11837;SDS011;5978;51.020;6.764;2023-02-26T04:33:31;1.20;;;1.10;;
11837;SDS011;5978;51.020;6.764;2023-02-26T04:35:57;1.58;;;1.40;;
11837;SDS011;5978;51.020;6.764;2023-02-26T04:38:23;5.68;;;1.70;;
11837;SDS011;5978;51.020;6.764;2023-02-26T04:40:49;6.10;;;1.53;;
11837;SDS011;5978;51.020;6.764;2023-02-26T04:43:15;2.77;;;1.53;;
11837;SDS011;5978;51.020;6.764;2023-02-26T04:45:43;1.60;;;1.20;;
11837;SDS011;5978;51.020;6.764;2023-02-26T04:48:10;3.78;;;1.70;;
11837;SDS011;5978;51.020;6.764;2023-02-26T04:50:35;1.50;;;1.40;;
11837;SDS011;5978;51.020;6.764;2023-02-26T04:53:01;3.10;;;1.47;;
11837;SDS011;5978;51.020;6.764;2023-02-26T04:55:26;2.00;;;1.33;;
11837;SDS011;5978;51.020;6.764;2023-02-26T04:57:52;1.53;;;1.27;;
11837;SDS011;5978;51.020;6.764;2023-02-26T05:00:18;4.10;;;1.50;;
11837;SDS011;5978;51.020;6.764;2023-02-26T05:02:44;0.93;;;0.90;;
11837;SDS011;5978;51.020;6.764;2023-02-26T05:05:10;2.20;;;1.60;;
11837;SDS011;5978;51.020;6.764;2023-02-26T05:07:35;5.13;;;2.20;;
11837;SDS011;5978;51.020;6.764;2023-02-26T05:10:01;4.80;;;1.60;;
11837;SDS011;5978;51.020;6.764;2023-02-26T05:12:27;3.50;;;1.95;;
11837;SDS011;5978;51.020;6.764;2023-02-26T05:14:53;2.63;;;1.57;;
11837;SDS011;5978;51.020;6.764;2023-02-26T05:17:18;3.73;;;1.93;;
11837;SDS011;5978;51.020;6.764;2023-02-26T05:19:44;4.83;;;1.70;;
11837;SDS011;5978;51.020;6.764;2023-02-26T05:22:09;5.93;;;1.97;;
11837;SDS011;5978;51.020;6.764;2023-02-26T05:24:36;1.85;;;1.55;;
11837;SDS011;5978;51.020;6.764;2023-02-26T05:27:02;3.03;;;1.67;;
11837;SDS011;5978;51.020;6.764;2023-02-26T05:29:27;3.00;;;2.10;;
11837;SDS011;5978;51.020;6.764;2023-02-26T05:31:53;1.80;;;1.70;;
11837;SDS011;5978;51.020;6.764;2023-02-26T05:34:18;5.17;;;1.83;;
11837;SDS011;5978;51.020;6.764;2023-02-26T05:36:44;2.73;;;1.50;;
11837;SDS011;5978;51.020;6.764;2023-02-26T05:39:09;6.47;;;1.63;;
11837;SDS011;5978;51.020;6.764;2023-02-26T05:41:35;11.80;;;4.30;;
11837;SDS011;5978;51.020;6.764;2023-02-26T05:44:01;2.50;;;1.90;;
11837;SDS011;5978;51.020;6.764;2023-02-26T05:46:26;4.93;;;1.80;;
11837;SDS011;5978;51.020;6.764;2023-02-26T05:48:52;2.75;;;1.45;;
11837;SDS011;5978;51.020;6.764;2023-02-26T05:51:18;2.13;;;1.47;;
11837;SDS011;5978;51.020;6.764;2023-02-26T05:53:44;2.30;;;1.07;;
11837;SDS011;5978;51.020;6.764;2023-02-26T05:56:10;2.42;;;1.17;;
11837;SDS011;5978;51.020;6.764;2023-02-26T05:58:36;6.13;;;1.20;;
11837;SDS011;5978;51.020;6.764;2023-02-26T06:01:02;4.55;;;1.17;;
11837;SDS011;5978;51.020;6.764;2023-02-26T06:03:28;1.60;;;1.13;;
11837;SDS011;5978;51.020;6.764;2023-02-26T06:05:54;2.10;;;1.43;;
11837;SDS011;5978;51.020;6.764;2023-02-26T06:08:19;5.47;;;1.98;;
11837;SDS011;5978;51.020;6.764;2023-02-26T06:10:45;4.00;;;1.30;;
11837;SDS011;5978;51.020;6.764;2023-02-26T06:13:11;4.63;;;1.43;;
11837;SDS011;5978;51.020;6.764;2023-02-26T06:15:36;4.20;;;1.37;;
11837;SDS011;5978;51.020;6.764;2023-02-26T06:18:02;1.87;;;1.77;;
11837;SDS011;5978;51.020;6.764;2023-02-26T06:20:28;2.40;;;1.27;;
11837;SDS011;5978;51.020;6.764;2023-02-26T06:22:53;1.80;;;1.33;;
11837;SDS011;5978;51.020;6.764;2023-02-26T06:25:19;2.50;;;1.20;;
11837;SDS011;5978;51.020;6.764;2023-02-26T06:27:44;1.50;;;1.40;;
11837;SDS011;5978;51.020;6.764;2023-02-26T06:30:10;2.10;;;1.30;;
11837;SDS011;5978;51.020;6.764;2023-02-26T06:32:36;3.28;;;1.80;;
11837;SDS011;5978;51.020;6.764;2023-02-26T06:35:02;3.53;;;1.40;;
11837;SDS011;5978;51.020;6.764;2023-02-26T06:37:27;3.67;;;1.52;;
11837;SDS011;5978;51.020;6.764;2023-02-26T06:39:53;1.53;;;1.30;;
11837;SDS011;5978;51.020;6.764;2023-02-26T06:42:19;2.33;;;1.30;;
11837;SDS011;5978;51.020;6.764;2023-02-26T06:44:44;1.83;;;1.37;;
11837;SDS011;5978;51.020;6.764;2023-02-26T06:47:10;2.50;;;1.13;;
11837;SDS011;5978;51.020;6.764;2023-02-26T06:49:35;4.40;;;1.60;;
11837;SDS011;5978;51.020;6.764;2023-02-26T06:52:01;2.30;;;1.30;;
11837;SDS011;5978;51.020;6.764;2023-02-26T06:54:27;1.40;;;1.30;;
11837;SDS011;5978;51.020;6.764;2023-02-26T06:56:52;3.60;;;2.37;;
11837;SDS011;5978;51.020;6.764;2023-02-26T06:59:21;5.22;;;1.98;;
11837;SDS011;5978;51.020;6.764;2023-02-26T07:01:47;13.20;;;2.42;;
11837;SDS011;5978;51.020;6.764;2023-02-26T07:04:13;3.43;;;1.97;;
11837;SDS011;5978;51.020;6.764;2023-02-26T07:06:38;6.03;;;2.20;;
11837;SDS011;5978;51.020;6.764;2023-02-26T07:09:04;2.43;;;2.20;;
11837;SDS011;5978;51.020;6.764;2023-02-26T07:11:29;2.77;;;1.67;;
11837;SDS011;5978;51.020;6.764;2023-02-26T07:13:55;3.20;;;2.47;;
11837;SDS011;5978;51.020;6.764;2023-02-26T07:16:21;4.90;;;3.10;;
11837;SDS011;5978;51.020;6.764;2023-02-26T07:18:46;3.83;;;2.10;;
11837;SDS011;5978;51.020;6.764;2023-02-26T07:21:12;2.00;;;1.73;;
11837;SDS011;5978;51.020;6.764;2023-02-26T07:23:37;1.70;;;1.60;;
11837;SDS011;5978;51.020;6.764;2023-02-26T07:26:03;5.10;;;1.80;;
11837;SDS011;5978;51.020;6.764;2023-02-26T07:28:29;16.03;;;2.33;;
11837;SDS011;5978;51.020;6.764;2023-02-26T07:30:55;5.53;;;1.47;;
11837;SDS011;5978;51.020;6.764;2023-02-26T07:33:21;6.47;;;1.98;;
11837;SDS011;5978;51.020;6.764;2023-02-26T07:35:47;8.93;;;3.60;;
11837;SDS011;5978;51.020;6.764;2023-02-26T07:38:13;3.97;;;2.60;;
11837;SDS011;5978;51.020;6.764;2023-02-26T07:40:41;6.00;;;2.50;;
11837;SDS011;5978;51.020;6.764;2023-02-26T07:43:07;5.28;;;2.30;;
11837;SDS011;5978;51.020;6.764;2023-02-26T07:45:32;6.00;;;2.00;;
11837;SDS011;5978;51.020;6.764;2023-02-26T07:47:58;16.33;;;1.97;;
11837;SDS011;5978;51.020;6.764;2023-02-26T07:50:24;5.00;;;2.72;;
11837;SDS011;5978;51.020;6.764;2023-02-26T07:52:51;11.03;;;2.70;;
11837;SDS011;5978;51.020;6.764;2023-02-26T07:55:17;6.63;;;2.08;;
11837;SDS011;5978;51.020;6.764;2023-02-26T07:57:43;5.97;;;2.00;;
11837;SDS011;5978;51.020;6.764;2023-02-26T08:00:09;2.85;;;1.67;;
11837;SDS011;5978;51.020;6.764;2023-02-26T08:02:35;2.55;;;2.35;;
11837;SDS011;5978;51.020;6.764;2023-02-26T08:05:01;5.30;;;2.37;;
11837;SDS011;5978;51.020;6.764;2023-02-26T08:07:27;3.38;;;2.10;;
11837;SDS011;5978;51.020;6.764;2023-02-26T08:09:53;4.07;;;1.90;;
11837;SDS011;5978;51.020;6.764;2023-02-26T08:12:19;8.37;;;2.93;;
11837;SDS011;5978;51.020;6.764;2023-02-26T08:14:44;5.30;;;2.40;;
11837;SDS011;5978;51.020;6.764;2023-02-26T08:17:11;3.78;;;2.10;;
11837;SDS011;5978;51.020;6.764;2023-02-26T08:19:37;4.20;;;2.57;;
11837;SDS011;5978;51.020;6.764;2023-02-26T08:22:02;5.17;;;2.53;;
11837;SDS011;5978;51.020;6.764;2023-02-26T08:24:28;10.33;;;1.70;;
11837;SDS011;5978;51.020;6.764;2023-02-26T08:26:53;6.33;;;1.70;;
11837;SDS011;5978;51.020;6.764;2023-02-26T08:29:20;2.85;;;1.92;;
11837;SDS011;5978;51.020;6.764;2023-02-26T08:31:46;3.73;;;1.90;;
11837;SDS011;5978;51.020;6.764;2023-02-26T08:34:12;5.93;;;2.10;;
11837;SDS011;5978;51.020;6.764;2023-02-26T08:36:37;8.10;;;3.13;;
11837;SDS011;5978;51.020;6.764;2023-02-26T08:39:03;2.70;;;2.00;;
11837;SDS011;5978;51.020;6.764;2023-02-26T08:41:29;3.35;;;2.20;;
11837;SDS011;5978;51.020;6.764;2023-02-26T08:43:56;5.85;;;2.63;;
11837;SDS011;5978;51.020;6.764;2023-02-26T08:46:25;3.22;;;2.10;;
11837;SDS011;5978;51.020;6.764;2023-02-26T08:48:50;3.63;;;2.60;;
11837;SDS011;5978;51.020;6.764;2023-02-26T08:51:17;3.55;;;1.42;;
11837;SDS011;5978;51.020;6.764;2023-02-26T08:53:43;3.25;;;2.70;;
11837;SDS011;5978;51.020;6.764;2023-02-26T08:56:11;4.22;;;2.10;;
11837;SDS011;5978;51.020;6.764;2023-02-26T08:58:37;7.38;;;2.22;;
11837;SDS011;5978;51.020;6.764;2023-02-26T09:01:02;2.43;;;2.23;;
11837;SDS011;5978;51.020;6.764;2023-02-26T09:03:28;6.60;;;2.90;;
11837;SDS011;5978;51.020;6.764;2023-02-26T09:05:54;5.07;;;1.97;;
11837;SDS011;5978;51.020;6.764;2023-02-26T09:08:19;6.60;;;1.97;;
11837;SDS011;5978;51.020;6.764;2023-02-26T09:10:45;5.60;;;2.00;;
11837;SDS011;5978;51.020;6.764;2023-02-26T09:13:11;4.47;;;2.33;;
11837;SDS011;5978;51.020;6.764;2023-02-26T09:15:37;2.67;;;1.70;;
11837;SDS011;5978;51.020;6.764;2023-02-26T09:18:02;2.60;;;2.40;;
11837;SDS011;5978;51.020;6.764;2023-02-26T09:20:28;4.60;;;2.37;;
11837;SDS011;5978;51.020;6.764;2023-02-26T09:22:54;3.43;;;2.10;;
11837;SDS011;5978;51.020;6.764;2023-02-26T09:25:20;4.60;;;2.27;;
11837;SDS011;5978;51.020;6.764;2023-02-26T09:27:45;3.10;;;2.00;;
11837;SDS011;5978;51.020;6.764;2023-02-26T09:30:11;5.43;;;1.67;;
11837;SDS011;5978;51.020;6.764;2023-02-26T09:32:37;6.38;;;1.98;;
11837;SDS011;5978;51.020;6.764;2023-02-26T09:35:03;3.23;;;2.17;;
11837;SDS011;5978;51.020;6.764;2023-02-26T09:37:29;3.45;;;2.22;;
11837;SDS011;5978;51.020;6.764;2023-02-26T09:39:55;2.55;;;2.20;;
11837;SDS011;5978;51.020;6.764;2023-02-26T09:44:59;4.07;;;2.25;;
11837;SDS011;5978;51.020;6.764;2023-02-26T09:47:43;6.50;;;1.90;;
11837;SDS011;5978;51.020;6.764;2023-02-26T09:50:23;3.65;;;2.05;;
11837;SDS011;5978;51.020;6.764;2023-02-26T09:55:43;3.60;;;2.28;;
11837;SDS011;5978;51.020;6.764;2023-02-26T09:58:26;4.85;;;2.35;;
11837;SDS011;5978;51.020;6.764;2023-02-26T10:14:19;2.90;;;1.92;;
11837;SDS011;5978;51.020;6.764;2023-02-26T10:17:00;1.45;;;1.35;;
11837;SDS011;5978;51.020;6.764;2023-02-26T10:19:32;2.13;;;1.70;;
11837;SDS011;5978;51.020;6.764;2023-02-26T10:22:07;5.70;;;1.80;;
11837;SDS011;5978;51.020;6.764;2023-02-26T10:24:43;6.03;;;2.10;;
11837;SDS011;5978;51.020;6.764;2023-02-26T10:27:17;1.92;;;1.60;;
11837;SDS011;5978;51.020;6.764;2023-02-26T10:30:09;5.60;;;1.60;;
11837;SDS011;5978;51.020;6.764;2023-02-26T10:35:22;8.32;;;1.90;;
11837;SDS011;5978;51.020;6.764;2023-02-26T10:37:53;2.38;;;1.48;;
11837;SDS011;5978;51.020;6.764;2023-02-26T10:40:28;2.90;;;1.40;;
11837;SDS011;5978;51.020;6.764;2023-02-26T10:43:09;2.40;;;1.60;;
11837;SDS011;5978;51.020;6.764;2023-02-26T10:48:48;3.45;;;1.60;;
11837;SDS011;5978;51.020;6.764;2023-02-26T10:51:24;2.85;;;1.13;;
11837;SDS011;5978;51.020;6.764;2023-02-26T10:53:57;2.75;;;1.33;;
11837;SDS011;5978;51.020;6.764;2023-02-26T10:56:31;6.20;;;1.35;;
11837;SDS011;5978;51.020;6.764;2023-02-26T10:58:57;4.32;;;1.60;;
11837;SDS011;5978;51.020;6.764;2023-02-26T11:01:24;1.48;;;1.38;;
11837;SDS011;5978;51.020;6.764;2023-02-26T11:04:00;2.58;;;1.42;;
11837;SDS011;5978;51.020;6.764;2023-02-26T11:06:37;1.40;;;1.30;;
11837;SDS011;5978;51.020;6.764;2023-02-26T11:14:36;1.80;;;1.58;;
11837;SDS011;5978;51.020;6.764;2023-02-26T11:17:03;1.65;;;1.10;;
11837;SDS011;5978;51.020;6.764;2023-02-26T11:19:37;1.40;;;1.25;;
11837;SDS011;5978;51.020;6.764;2023-02-26T11:22:06;1.73;;;0.85;;
11837;SDS011;5978;51.020;6.764;2023-02-26T11:27:15;1.42;;;1.10;;
11837;SDS011;5978;51.020;6.764;2023-02-26T11:29:52;1.42;;;1.30;;
11837;SDS011;5978;51.020;6.764;2023-02-26T11:32:29;1.73;;;1.00;;
11837;SDS011;5978;51.020;6.764;2023-02-26T11:34:57;4.18;;;1.33;;
11837;SDS011;5978;51.020;6.764;2023-02-26T11:37:26;3.13;;;1.20;;
11837;SDS011;5978;51.020;6.764;2023-02-26T11:40:45;2.60;;;1.55;;
11837;SDS011;5978;51.020;6.764;2023-02-26T11:42:54;2.05;;;1.15;;
11837;SDS011;5978;51.020;6.764;2023-02-26T11:45:23;0.90;;;0.80;;
11837;SDS011;5978;51.020;6.764;2023-02-26T11:47:57;1.75;;;1.25;;
11837;SDS011;5978;51.020;6.764;2023-02-26T11:50:26;3.75;;;1.20;;
11837;SDS011;5978;51.020;6.764;2023-02-26T11:52:54;3.38;;;1.20;;
11837;SDS011;5978;51.020;6.764;2023-02-26T11:55:27;1.10;;;1.00;;
11837;SDS011;5978;51.020;6.764;2023-02-26T11:57:55;2.27;;;1.10;;
11837;SDS011;5978;51.020;6.764;2023-02-26T12:00:26;1.53;;;0.90;;
11837;SDS011;5978;51.020;6.764;2023-02-26T12:03:00;3.03;;;1.27;;
11837;SDS011;5978;51.020;6.764;2023-02-26T12:05:29;2.33;;;1.30;;
11837;SDS011;5978;51.020;6.764;2023-02-26T12:07:55;2.30;;;1.37;;
11837;SDS011;5978;51.020;6.764;2023-02-26T12:10:34;3.37;;;1.30;;
11837;SDS011;5978;51.020;6.764;2023-02-26T12:15:46;2.17;;;1.07;;
11837;SDS011;5978;51.020;6.764;2023-02-26T12:26:51;1.83;;;1.13;;
11837;SDS011;5978;51.020;6.764;2023-02-26T12:32:08;4.63;;;1.10;;
11837;SDS011;5978;51.020;6.764;2023-02-26T12:37:19;1.90;;;1.20;;
11837;SDS011;5978;51.020;6.764;2023-02-26T12:40:12;1.60;;;1.10;;
11837;SDS011;5978;51.020;6.764;2023-02-26T12:42:47;2.00;;;1.30;;
11837;SDS011;5978;51.020;6.764;2023-02-26T13:11:19;1.20;;;0.93;;
11837;SDS011;5978;51.020;6.764;2023-02-26T13:16:34;1.43;;;1.03;;
11837;SDS011;5978;51.020;6.764;2023-02-26T13:21:43;5.50;;;1.53;;
11837;SDS011;5978;51.020;6.764;2023-02-26T13:24:16;1.43;;;1.00;;
11837;SDS011;5978;51.020;6.764;2023-02-26T13:26:45;1.40;;;1.10;;
11837;SDS011;5978;51.020;6.764;2023-02-26T13:29:34;2.10;;;1.40;;
11837;SDS011;5978;51.020;6.764;2023-02-26T13:32:07;3.53;;;1.40;;
11837;SDS011;5978;51.020;6.764;2023-02-26T13:34:40;1.50;;;1.07;;
11837;SDS011;5978;51.020;6.764;2023-02-26T13:37:20;3.03;;;1.50;;
11837;SDS011;5978;51.020;6.764;2023-02-26T13:39:49;1.47;;;1.23;;
11837;SDS011;5978;51.020;6.764;2023-02-26T13:48:07;2.80;;;1.40;;
11837;SDS011;5978;51.020;6.764;2023-02-26T13:56:05;1.17;;;1.00;;
11837;SDS011;5978;51.020;6.764;2023-02-26T13:58:53;1.73;;;1.37;;
11837;SDS011;5978;51.020;6.764;2023-02-26T14:06:47;3.40;;;1.40;;
11837;SDS011;5978;51.020;6.764;2023-02-26T14:16:54;2.10;;;1.13;;
11837;SDS011;5978;51.020;6.764;2023-02-26T14:19:42;1.87;;;1.07;;
11837;SDS011;5978;51.020;6.764;2023-02-26T14:25:11;1.53;;;1.20;;
11837;SDS011;5978;51.020;6.764;2023-02-26T14:27:58;1.40;;;1.20;;
11837;SDS011;5978;51.020;6.764;2023-02-26T14:33:59;4.13;;;0.97;;
11837;SDS011;5978;51.020;6.764;2023-02-26T14:36:43;2.00;;;1.00;;
11837;SDS011;5978;51.020;6.764;2023-02-26T14:42:04;2.27;;;1.33;;
11837;SDS011;5978;51.020;6.764;2023-02-26T14:44:42;2.40;;;1.03;;
11837;SDS011;5978;51.020;6.764;2023-02-26T14:47:11;1.33;;;1.10;;
11837;SDS011;5978;51.020;6.764;2023-02-26T14:49:42;2.23;;;1.30;;
11837;SDS011;5978;51.020;6.764;2023-02-26T14:54:49;2.30;;;1.70;;
11837;SDS011;5978;51.020;6.764;2023-02-26T15:00:48;1.77;;;1.63;;
11837;SDS011;5978;51.020;6.764;2023-02-26T15:03:41;1.67;;;1.57;;
11837;SDS011;5978;51.020;6.764;2023-02-26T15:28:04;1.90;;;1.33;;
11837;SDS011;5978;51.020;6.764;2023-02-26T15:30:31;2.57;;;1.30;;
11837;SDS011;5978;51.020;6.764;2023-02-26T15:32:59;1.77;;;1.40;;
11837;SDS011;5978;51.020;6.764;2023-02-26T15:35:27;2.60;;;1.10;;
11837;SDS011;5978;51.020;6.764;2023-02-26T15:37:56;1.90;;;1.10;;
11837;SDS011;5978;51.020;6.764;2023-02-26T15:40:25;1.50;;;1.10;;
11837;SDS011;5978;51.020;6.764;2023-02-26T15:42:54;1.40;;;1.30;;
11837;SDS011;5978;51.020;6.764;2023-02-26T15:45:23;2.57;;;1.50;;
11837;SDS011;5978;51.020;6.764;2023-02-26T15:47:57;1.93;;;1.77;;
11837;SDS011;5978;51.020;6.764;2023-02-26T15:50:26;1.50;;;1.40;;
11837;SDS011;5978;51.020;6.764;2023-02-26T15:52:56;4.00;;;1.40;;
11837;SDS011;5978;51.020;6.764;2023-02-26T15:55:24;1.10;;;1.00;;
11837;SDS011;5978;51.020;6.764;2023-02-26T15:57:50;2.43;;;1.57;;
11837;SDS011;5978;51.020;6.764;2023-02-26T16:00:19;1.70;;;1.60;;
11837;SDS011;5978;51.020;6.764;2023-02-26T16:02:50;1.75;;;1.45;;
11837;SDS011;5978;51.020;6.764;2023-02-26T16:05:18;4.28;;;3.38;;
11837;SDS011;5978;51.020;6.764;2023-02-26T16:07:44;4.68;;;1.50;;
11837;SDS011;5978;51.020;6.764;2023-02-26T16:10:15;1.45;;;1.35;;
11837;SDS011;5978;51.020;6.764;2023-02-26T16:13:02;1.65;;;1.55;;
11837;SDS011;5978;51.020;6.764;2023-02-26T16:15:34;5.95;;;2.00;;
11837;SDS011;5978;51.020;6.764;2023-02-26T16:18:03;2.13;;;1.98;;
11837;SDS011;5978;51.020;6.764;2023-02-26T16:20:37;2.00;;;1.40;;
11837;SDS011;5978;51.020;6.764;2023-02-26T16:23:25;5.47;;;2.95;;
11837;SDS011;5978;51.020;6.764;2023-02-26T16:26:03;12.63;;;4.80;;
11837;SDS011;5978;51.020;6.764;2023-02-26T16:28:31;25.40;;;11.45;;
11837;SDS011;5978;51.020;6.764;2023-02-26T16:31:00;3.50;;;2.22;;
11837;SDS011;5978;51.020;6.764;2023-02-26T16:33:30;17.45;;;7.13;;
11837;SDS011;5978;51.020;6.764;2023-02-26T16:36:05;5.15;;;2.65;;
11837;SDS011;5978;51.020;6.764;2023-02-26T16:38:49;23.30;;;9.98;;
11837;SDS011;5978;51.020;6.764;2023-02-26T16:41:24;27.25;;;11.10;;
11837;SDS011;5978;51.020;6.764;2023-02-26T16:43:53;28.02;;;10.88;;
11837;SDS011;5978;51.020;6.764;2023-02-26T16:49:16;2.42;;;2.22;;
11837;SDS011;5978;51.020;6.764;2023-02-26T16:51:51;11.48;;;3.80;;
11837;SDS011;5978;51.020;6.764;2023-02-26T16:54:19;8.95;;;4.20;;
11837;SDS011;5978;51.020;6.764;2023-02-26T16:56:48;6.05;;;4.10;;
11837;SDS011;5978;51.020;6.764;2023-02-26T16:59:20;9.93;;;5.20;;
11837;SDS011;5978;51.020;6.764;2023-02-26T17:04:14;4.97;;;2.90;;
11837;SDS011;5978;51.020;6.764;2023-02-26T17:06:42;4.57;;;3.13;;
11837;SDS011;5978;51.020;6.764;2023-02-26T17:09:22;4.20;;;3.10;;
11837;SDS011;5978;51.020;6.764;2023-02-26T17:11:50;3.75;;;2.78;;
11837;SDS011;5978;51.020;6.764;2023-02-26T17:14:30;3.83;;;2.30;;
11837;SDS011;5978;51.020;6.764;2023-02-26T17:17:02;2.60;;;2.42;;
11837;SDS011;5978;51.020;6.764;2023-02-26T17:19:28;3.27;;;2.97;;
11837;SDS011;5978;51.020;6.764;2023-02-26T17:21:54;3.60;;;3.20;;
11837;SDS011;5978;51.020;6.764;2023-02-26T17:24:23;5.13;;;3.10;;
11837;SDS011;5978;51.020;6.764;2023-02-26T17:26:54;2.80;;;2.60;;
11837;SDS011;5978;51.020;6.764;2023-02-26T17:29:24;3.88;;;3.05;;
11837;SDS011;5978;51.020;6.764;2023-02-26T17:32:13;5.40;;;2.90;;
11837;SDS011;5978;51.020;6.764;2023-02-26T17:34:44;7.55;;;3.00;;
11837;SDS011;5978;51.020;6.764;2023-02-26T17:37:13;3.53;;;3.20;;
11837;SDS011;5978;51.020;6.764;2023-02-26T17:39:40;3.78;;;3.45;;
11837;SDS011;5978;51.020;6.764;2023-02-26T17:42:12;3.80;;;3.35;;
11837;SDS011;5978;51.020;6.764;2023-02-26T17:44:43;5.13;;;3.67;;
11837;SDS011;5978;51.020;6.764;2023-02-26T17:47:16;3.67;;;2.60;;
11837;SDS011;5978;51.020;6.764;2023-02-26T17:49:43;7.60;;;3.63;;
11837;SDS011;5978;51.020;6.764;2023-02-26T17:52:10;3.00;;;2.75;;
11837;SDS011;5978;51.020;6.764;2023-02-26T17:54:36;8.20;;;3.50;;
11837;SDS011;5978;51.020;6.764;2023-02-26T17:57:02;4.70;;;2.80;;
11837;SDS011;5978;51.020;6.764;2023-02-26T17:59:28;7.13;;;2.67;;
11837;SDS011;5978;51.020;6.764;2023-02-26T18:01:54;5.87;;;2.80;;
11837;SDS011;5978;51.020;6.764;2023-02-26T18:04:19;2.33;;;2.13;;
11837;SDS011;5978;51.020;6.764;2023-02-26T18:06:46;2.95;;;2.50;;
11837;SDS011;5978;51.020;6.764;2023-02-26T18:09:12;2.90;;;2.50;;
11837;SDS011;5978;51.020;6.764;2023-02-26T18:11:39;3.22;;;2.70;;
11837;SDS011;5978;51.020;6.764;2023-02-26T18:14:06;4.70;;;2.55;;
11837;SDS011;5978;51.020;6.764;2023-02-26T18:16:33;3.72;;;3.10;;
11837;SDS011;5978;51.020;6.764;2023-02-26T18:19:02;3.92;;;2.80;;
11837;SDS011;5978;51.020;6.764;2023-02-26T18:21:29;6.95;;;2.85;;
11837;SDS011;5978;51.020;6.764;2023-02-26T18:23:55;2.60;;;2.40;;
11837;SDS011;5978;51.020;6.764;2023-02-26T18:26:21;8.00;;;3.10;;
11837;SDS011;5978;51.020;6.764;2023-02-26T18:28:51;4.80;;;3.38;;
11837;SDS011;5978;51.020;6.764;2023-02-26T18:31:17;2.93;;;2.43;;
11837;SDS011;5978;51.020;6.764;2023-02-26T18:33:42;2.97;;;2.67;;
11837;SDS011;5978;51.020;6.764;2023-02-26T18:36:12;2.30;;;2.20;;
11837;SDS011;5978;51.020;6.764;2023-02-26T18:38:53;5.35;;;4.32;;
11837;SDS011;5978;51.020;6.764;2023-02-26T18:41:22;5.50;;;4.35;;
11837;SDS011;5978;51.020;6.764;2023-02-26T18:43:47;4.00;;;3.47;;
11837;SDS011;5978;51.020;6.764;2023-02-26T18:46:13;4.63;;;3.20;;
11837;SDS011;5978;51.020;6.764;2023-02-26T18:48:39;6.20;;;3.03;;